sensor_id;sensor_type;location;lat;lon;timestamp;pressure;altitude;pressure_sealevel;temperature;humidity
72116;BME280;59991;52.140;5.428;2023-05-31T00:00:25;102738.50;;;11.81;84.97
72116;BME280;59991;52.140;5.428;2023-05-31T00:00:56;102735.63;;;11.77;85.01
72116;BME280;59991;52.140;5.428;2023-05-31T00:01:28;102740.44;;;11.81;84.95
72116;BME280;59991;52.140;5.428;2023-05-31T00:02:00;102731.78;;;11.79;84.78
72116;BME280;59991;52.140;5.428;2023-05-31T00:02:34;102739.50;;;11.76;84.87
72116;BME280;59991;52.140;5.428;2023-05-31T00:03:06;102743.50;;;11.79;84.76
72116;BME280;59991;52.140;5.428;2023-05-31T00:03:38;102744.63;;;11.78;84.94
72116;BME280;59991;52.140;5.428;2023-05-31T00:04:14;102738.03;;;11.79;84.64
72116;BME280;59991;52.140;5.428;2023-05-31T00:04:46;102730.81;;;11.74;84.46
72116;BME280;59991;52.140;5.428;2023-05-31T00:05:17;102736.44;;;11.78;84.80
72116;BME280;59991;52.140;5.428;2023-05-31T00:05:49;102728.88;;;11.75;84.58
72116;BME280;59991;52.140;5.428;2023-05-31T00:06:20;102734.03;;;11.76;84.98
72116;BME280;59991;52.140;5.428;2023-05-31T00:06:52;102734.03;;;11.76;85.21
72116;BME280;59991;52.140;5.428;2023-05-31T00:07:23;102733.13;;;11.72;85.42
72116;BME280;59991;52.140;5.428;2023-05-31T00:07:56;102737.44;;;11.73;85.41
72116;BME280;59991;52.140;5.428;2023-05-31T00:08:27;102735.38;;;11.70;85.26
72116;BME280;59991;52.140;5.428;2023-05-31T00:08:58;102736.53;;;11.69;85.08
72116;BME280;59991;52.140;5.428;2023-05-31T00:09:30;102737.66;;;11.68;85.12
72116;BME280;59991;52.140;5.428;2023-05-31T00:10:02;102737.66;;;11.68;85.59
72116;BME280;59991;52.140;5.428;2023-05-31T00:10:33;102733.31;;;11.67;85.33
72116;BME280;59991;52.140;5.428;2023-05-31T00:11:06;102738.44;;;11.69;85.13
72116;BME280;59991;52.140;5.428;2023-05-31T00:11:38;102741.53;;;11.67;85.65
72116;BME280;59991;52.140;5.428;2023-05-31T00:12:09;102734.47;;;11.66;85.60
72116;BME280;59991;52.140;5.428;2023-05-31T00:12:41;102735.25;;;11.67;85.22
72116;BME280;59991;52.140;5.428;2023-05-31T00:13:12;102741.53;;;11.67;85.27
72116;BME280;59991;52.140;5.428;2023-05-31T00:13:44;102729.78;;;11.67;85.52
72116;BME280;59991;52.140;5.428;2023-05-31T00:14:15;102737.19;;;11.66;85.67
72116;BME280;59991;52.140;5.428;2023-05-31T00:14:47;102732.84;;;11.65;85.40
72116;BME280;59991;52.140;5.428;2023-05-31T00:15:18;102735.59;;;11.65;85.35
72116;BME280;59991;52.140;5.428;2023-05-31T00:15:50;102731.59;;;11.63;85.61
72116;BME280;59991;52.140;5.428;2023-05-31T00:16:21;102729.66;;;11.63;85.61
72116;BME280;59991;52.140;5.428;2023-05-31T00:17:13;102730.00;;;11.62;85.80
72116;BME280;59991;52.140;5.428;2023-05-31T00:18:04;102725.66;;;11.61;85.33
72116;BME280;59991;52.140;5.428;2023-05-31T00:18:36;102733.53;;;11.62;85.70
72116;BME280;59991;52.140;5.428;2023-05-31T00:19:08;102726.81;;;11.60;85.85
72116;BME280;59991;52.140;5.428;2023-05-31T00:19:40;102733.41;;;11.59;85.83
72116;BME280;59991;52.140;5.428;2023-05-31T00:20:14;102728.75;;;11.59;85.54
72116;BME280;59991;52.140;5.428;2023-05-31T00:20:45;102719.63;;;11.55;85.49
72116;BME280;59991;52.140;5.428;2023-05-31T00:21:17;102731.13;;;11.61;85.47
72116;BME280;59991;52.140;5.428;2023-05-31T00:21:48;102731.34;;;11.56;85.90
72116;BME280;59991;52.140;5.428;2023-05-31T00:22:20;102733.41;;;11.59;85.95
72116;BME280;59991;52.140;5.428;2023-05-31T00:22:51;102734.06;;;11.56;85.75
72116;BME280;59991;52.140;5.428;2023-05-31T00:23:23;102740.00;;;11.58;86.20
72116;BME280;59991;52.140;5.428;2023-05-31T00:23:55;102729.41;;;11.56;85.70
72116;BME280;59991;52.140;5.428;2023-05-31T00:24:26;102731.72;;;11.54;85.97
72116;BME280;59991;52.140;5.428;2023-05-31T00:24:58;102737.59;;;11.56;85.67
72116;BME280;59991;52.140;5.428;2023-05-31T00:25:29;102727.94;;;11.59;86.12
72116;BME280;59991;52.140;5.428;2023-05-31T00:26:01;102729.88;;;11.58;85.95
72116;BME280;59991;52.140;5.428;2023-05-31T00:26:32;102724.75;;;11.57;86.00
72116;BME280;59991;52.140;5.428;2023-05-31T00:27:04;102735.22;;;11.55;86.06
72116;BME280;59991;52.140;5.428;2023-05-31T00:27:36;102734.53;;;11.58;85.71
72116;BME280;59991;52.140;5.428;2023-05-31T00:28:07;102725.44;;;11.54;85.65
72116;BME280;59991;52.140;5.428;2023-05-31T00:28:39;102733.28;;;11.55;85.92
72116;BME280;59991;52.140;5.428;2023-05-31T00:29:10;102730.53;;;11.55;85.68
72116;BME280;59991;52.140;5.428;2023-05-31T00:29:42;102733.28;;;11.55;85.47
72116;BME280;59991;52.140;5.428;2023-05-31T00:30:13;102726.56;;;11.53;85.41
72116;BME280;59991;52.140;5.428;2023-05-31T00:30:45;102733.75;;;11.57;85.27
72116;BME280;59991;52.140;5.428;2023-05-31T00:31:16;102737.28;;;11.58;85.57
72116;BME280;59991;52.140;5.428;2023-05-31T00:31:51;102741.94;;;11.57;85.72
72116;BME280;59991;52.140;5.428;2023-05-31T00:32:22;102743.06;;;11.56;85.85
72116;BME280;59991;52.140;5.428;2023-05-31T00:32:53;102735.09;;;11.51;86.13
72116;BME280;59991;52.140;5.428;2023-05-31T00:33:25;102739.44;;;11.52;85.88
72116;BME280;59991;52.140;5.428;2023-05-31T00:33:57;102737.38;;;11.49;86.03
72116;BME280;59991;52.140;5.428;2023-05-31T00:34:29;102738.97;;;11.50;86.20
72116;BME280;59991;52.140;5.428;2023-05-31T00:35:00;102735.78;;;11.48;86.51
72116;BME280;59991;52.140;5.428;2023-05-31T00:35:32;102736.44;;;11.45;86.27
72116;BME280;59991;52.140;5.428;2023-05-31T00:36:03;102732.91;;;11.45;86.20
72116;BME280;59991;52.140;5.428;2023-05-31T00:36:35;102727.78;;;11.43;86.32
72116;BME280;59991;52.140;5.428;2023-05-31T00:37:07;102725.06;;;11.43;86.28
72116;BME280;59991;52.140;5.428;2023-05-31T00:37:38;102726.19;;;11.42;86.23
72116;BME280;59991;52.140;5.428;2023-05-31T00:38:10;102726.19;;;11.42;86.12
72116;BME280;59991;52.140;5.428;2023-05-31T00:38:41;102727.00;;;11.42;86.64
72116;BME280;59991;52.140;5.428;2023-05-31T00:39:13;102731.66;;;11.42;86.08
72116;BME280;59991;52.140;5.428;2023-05-31T00:39:44;102722.31;;;11.43;86.26
72116;BME280;59991;52.140;5.428;2023-05-31T00:40:16;102732.13;;;11.44;86.42
72116;BME280;59991;52.140;5.428;2023-05-31T00:40:47;102716.06;;;11.42;86.47
72116;BME280;59991;52.140;5.428;2023-05-31T00:41:19;102723.47;;;11.42;86.58
72116;BME280;59991;52.140;5.428;2023-05-31T00:41:51;102722.66;;;11.41;86.04
72116;BME280;59991;52.140;5.428;2023-05-31T00:42:23;102728.91;;;11.42;86.13
72116;BME280;59991;52.140;5.428;2023-05-31T00:42:54;102723.47;;;11.42;86.25
72116;BME280;59991;52.140;5.428;2023-05-31T00:43:26;102721.06;;;11.40;86.20
72116;BME280;59991;52.140;5.428;2023-05-31T00:43:57;102719.13;;;11.41;86.07
72116;BME280;59991;52.140;5.428;2023-05-31T00:44:28;102723.13;;;11.43;85.85
72116;BME280;59991;52.140;5.428;2023-05-31T00:45:01;102724.25;;;11.42;85.98
72116;BME280;59991;52.140;5.428;2023-05-31T00:45:33;102730.53;;;11.43;86.16
72116;BME280;59991;52.140;5.428;2023-05-31T00:46:06;102729.84;;;11.46;86.02
72116;BME280;59991;52.140;5.428;2023-05-31T00:46:41;102729.72;;;11.42;85.65
72116;BME280;59991;52.140;5.428;2023-05-31T00:47:12;102723.47;;;11.42;85.66
72116;BME280;59991;52.140;5.428;2023-05-31T00:47:44;102733.25;;;11.43;85.91
72116;BME280;59991;52.140;5.428;2023-05-31T00:48:17;102737.56;;;11.44;85.85
72116;BME280;59991;52.140;5.428;2023-05-31T00:48:49;102730.53;;;11.43;85.92
72116;BME280;59991;52.140;5.428;2023-05-31T00:49:20;102726.84;;;11.39;86.04
72116;BME280;59991;52.140;5.428;2023-05-31T00:49:53;102736.31;;;11.41;86.46
72116;BME280;59991;52.140;5.428;2023-05-31T00:50:25;102735.84;;;11.39;86.75
72116;BME280;59991;52.140;5.428;2023-05-31T00:50:57;102729.47;;;11.35;86.69
72116;BME280;59991;52.140;5.428;2023-05-31T00:51:30;102739.25;;;11.36;86.53
72116;BME280;59991;52.140;5.428;2023-05-31T00:52:03;102730.25;;;11.36;86.71
72116;BME280;59991;52.140;5.428;2023-05-31T00:52:36;102736.88;;;11.35;86.56
72116;BME280;59991;52.140;5.428;2023-05-31T00:53:08;102736.88;;;11.35;86.58
72116;BME280;59991;52.140;5.428;2023-05-31T00:53:39;102731.41;;;11.35;86.31
72116;BME280;59991;52.140;5.428;2023-05-31T00:54:11;102730.97;;;11.33;86.49
72116;BME280;59991;52.140;5.428;2023-05-31T00:54:43;102734.81;;;11.32;86.50
72116;BME280;59991;52.140;5.428;2023-05-31T00:55:15;102733.88;;;11.28;87.11
72116;BME280;59991;52.140;5.428;2023-05-31T00:55:48;102732.28;;;11.27;86.73
72116;BME280;59991;52.140;5.428;2023-05-31T00:56:20;102733.09;;;11.27;86.64
72116;BME280;59991;52.140;5.428;2023-05-31T00:56:53;102727.63;;;11.27;86.64
72116;BME280;59991;52.140;5.428;2023-05-31T00:57:26;102724.75;;;11.24;87.08
72116;BME280;59991;52.140;5.428;2023-05-31T00:57:58;102730.22;;;11.24;87.25
72116;BME280;59991;52.140;5.428;2023-05-31T00:58:30;102730.56;;;11.22;87.25
72116;BME280;59991;52.140;5.428;2023-05-31T00:59:05;102730.41;;;11.19;87.50
72116;BME280;59991;52.140;5.428;2023-05-31T00:59:37;102727.22;;;11.17;87.41
72116;BME280;59991;52.140;5.428;2023-05-31T01:00:09;102735.22;;;11.22;87.25
72116;BME280;59991;52.140;5.428;2023-05-31T01:00:42;102726.09;;;11.18;86.88
72116;BME280;59991;52.140;5.428;2023-05-31T01:01:14;102728.03;;;11.17;87.02
72116;BME280;59991;52.140;5.428;2023-05-31T01:01:45;102728.38;;;11.16;86.86
72116;BME280;59991;52.140;5.428;2023-05-31T01:02:17;102728.81;;;11.18;87.13
72116;BME280;59991;52.140;5.428;2023-05-31T01:02:50;102726.09;;;11.18;87.26
72116;BME280;59991;52.140;5.428;2023-05-31T01:03:22;102728.81;;;11.18;87.32
72116;BME280;59991;52.140;5.428;2023-05-31T01:03:54;102732.34;;;11.18;87.43
72116;BME280;59991;52.140;5.428;2023-05-31T01:04:28;102723.25;;;11.14;87.46
72116;BME280;59991;52.140;5.428;2023-05-31T01:05:01;102727.22;;;11.17;87.29
72116;BME280;59991;52.140;5.428;2023-05-31T01:05:33;102730.31;;;11.15;87.38
72116;BME280;59991;52.140;5.428;2023-05-31T01:06:04;102731.88;;;11.16;87.64
72116;BME280;59991;52.140;5.428;2023-05-31T01:06:36;102733.03;;;11.15;87.83
72116;BME280;59991;52.140;5.428;2023-05-31T01:07:10;102731.13;;;11.16;87.74
72116;BME280;59991;52.140;5.428;2023-05-31T01:07:44;102727.91;;;11.14;87.33
72116;BME280;59991;52.140;5.428;2023-05-31T01:08:16;102732.25;;;11.15;87.38
72116;BME280;59991;52.140;5.428;2023-05-31T01:08:48;102732.59;;;11.13;87.61
72116;BME280;59991;52.140;5.428;2023-05-31T01:09:20;102732.59;;;11.13;87.56
72116;BME280;59991;52.140;5.428;2023-05-31T01:09:52;102731.31;;;11.11;88.16
72116;BME280;59991;52.140;5.428;2023-05-31T01:10:24;102726.97;;;11.10;88.00
72116;BME280;59991;52.140;5.428;2023-05-31T01:10:59;102732.44;;;11.10;88.08
72116;BME280;59991;52.140;5.428;2023-05-31T01:12:05;102737.56;;;11.11;87.55
72116;BME280;59991;52.140;5.428;2023-05-31T01:13:37;102734.38;;;11.09;87.46
72116;BME280;59991;52.140;5.428;2023-05-31T01:14:19;102731.50;;;11.05;87.47
72116;BME280;59991;52.140;5.428;2023-05-31T01:15:08;102735.03;;;11.06;87.75
72116;BME280;59991;52.140;5.428;2023-05-31T01:17:06;102740.16;;;11.07;87.37
72116;BME280;59991;52.140;5.428;2023-05-31T01:18:03;102737.44;;;11.07;87.80
72116;BME280;59991;52.140;5.428;2023-05-31T01:18:44;102740.16;;;11.07;87.61
72116;BME280;59991;52.140;5.428;2023-05-31T01:19:36;102738.56;;;11.06;87.82
72116;BME280;59991;52.140;5.428;2023-05-31T01:20:15;102738.91;;;11.05;87.63
72116;BME280;59991;52.140;5.428;2023-05-31T01:20:49;102736.84;;;11.02;87.93
72116;BME280;59991;52.140;5.428;2023-05-31T01:21:31;102736.84;;;11.02;88.18
72116;BME280;59991;52.140;5.428;2023-05-31T01:22:16;102739.91;;;11.00;87.69
72116;BME280;59991;52.140;5.428;2023-05-31T01:25:26;102739.56;;;11.02;87.74
72116;BME280;59991;52.140;5.428;2023-05-31T01:27:01;102739.22;;;11.03;87.43
72116;BME280;59991;52.140;5.428;2023-05-31T01:27:33;102732.16;;;11.02;87.73
72116;BME280;59991;52.140;5.428;2023-05-31T01:28:06;102733.31;;;11.01;87.86
72116;BME280;59991;52.140;5.428;2023-05-31T01:28:42;102738.44;;;11.03;87.78
72116;BME280;59991;52.140;5.428;2023-05-31T01:29:17;102731.25;;;10.98;87.85
72116;BME280;59991;52.140;5.428;2023-05-31T01:29:49;102735.91;;;10.98;87.78
72116;BME280;59991;52.140;5.428;2023-05-31T01:30:22;102729.31;;;10.99;87.94
72116;BME280;59991;52.140;5.428;2023-05-31T01:30:57;102728.06;;;10.96;87.66
72116;BME280;59991;52.140;5.428;2023-05-31T01:31:31;102726.09;;;10.97;87.13
72116;BME280;59991;52.140;5.428;2023-05-31T01:32:05;102728.50;;;10.98;87.30
72116;BME280;59991;52.140;5.428;2023-05-31T01:32:38;102733.31;;;11.01;87.33
72116;BME280;59991;52.140;5.428;2023-05-31T01:33:10;102732.50;;;11.01;87.42
72116;BME280;59991;52.140;5.428;2023-05-31T01:33:43;102730.91;;;11.00;87.38
72116;BME280;59991;52.140;5.428;2023-05-31T01:34:15;102728.50;;;10.98;87.47
72116;BME280;59991;52.140;5.428;2023-05-31T01:34:47;102726.00;;;10.93;87.75
72116;BME280;59991;52.140;5.428;2023-05-31T01:35:20;102728.06;;;10.96;88.02
72116;BME280;59991;52.140;5.428;2023-05-31T01:35:52;102719.28;;;10.91;88.00
72116;BME280;59991;52.140;5.428;2023-05-31T01:36:23;102718.47;;;10.90;87.99
72116;BME280;59991;52.140;5.428;2023-05-31T01:36:54;102722.00;;;10.91;87.90
72116;BME280;59991;52.140;5.428;2023-05-31T01:37:26;102726.34;;;10.92;87.94
72116;BME280;59991;52.140;5.428;2023-05-31T01:37:57;102717.69;;;10.90;87.79
72116;BME280;59991;52.140;5.428;2023-05-31T01:38:29;102716.06;;;10.89;87.83
72116;BME280;59991;52.140;5.428;2023-05-31T01:39:01;102720.06;;;10.91;88.53
72116;BME280;59991;52.140;5.428;2023-05-31T01:39:34;102718.00;;;10.88;88.41
72116;BME280;59991;52.140;5.428;2023-05-31T01:40:06;102723.47;;;10.88;88.73
72116;BME280;59991;52.140;5.428;2023-05-31T01:40:39;102716.28;;;10.84;88.54
72116;BME280;59991;52.140;5.428;2023-05-31T01:41:11;102724.94;;;10.86;88.78
72116;BME280;59991;52.140;5.428;2023-05-31T01:41:45;102713.41;;;10.80;88.49
72116;BME280;59991;52.140;5.428;2023-05-31T01:42:19;102732.19;;;10.82;88.28
72116;BME280;59991;52.140;5.428;2023-05-31T01:42:52;102715.81;;;10.82;88.47
72116;BME280;59991;52.140;5.428;2023-05-31T01:43:25;102722.38;;;10.81;88.37
72116;BME280;59991;52.140;5.428;2023-05-31T01:43:57;102732.31;;;10.85;88.49
72116;BME280;59991;52.140;5.428;2023-05-31T01:44:31;102726.38;;;10.83;88.26
72116;BME280;59991;52.140;5.428;2023-05-31T01:45:03;102726.84;;;10.85;88.53
72116;BME280;59991;52.140;5.428;2023-05-31T01:45:36;102725.59;;;10.83;88.35
72116;BME280;59991;52.140;5.428;2023-05-31T01:46:09;102726.38;;;10.83;88.04
72116;BME280;59991;52.140;5.428;2023-05-31T01:46:42;102740.50;;;10.85;88.21
72116;BME280;59991;52.140;5.428;2023-05-31T01:47:14;102731.38;;;10.81;88.13
72116;BME280;59991;52.140;5.428;2023-05-31T01:47:47;102733.78;;;10.83;88.68
72116;BME280;59991;52.140;5.428;2023-05-31T01:48:20;102732.19;;;10.82;88.32
72116;BME280;59991;52.140;5.428;2023-05-31T01:48:52;102731.72;;;10.80;88.49
72116;BME280;59991;52.140;5.428;2023-05-31T01:49:23;102739.09;;;10.79;88.47
72116;BME280;59991;52.140;5.428;2023-05-31T01:49:56;102728.50;;;10.78;88.34
72116;BME280;59991;52.140;5.428;2023-05-31T01:50:29;102727.38;;;10.79;88.14
72116;BME280;59991;52.140;5.428;2023-05-31T01:51:02;102734.91;;;10.82;88.17
72116;BME280;59991;52.140;5.428;2023-05-31T01:51:37;102730.56;;;10.81;87.89
72116;BME280;59991;52.140;5.428;2023-05-31T01:52:14;102732.84;;;10.79;88.14
72116;BME280;59991;52.140;5.428;2023-05-31T01:52:46;102728.97;;;10.80;88.31
72116;BME280;59991;52.140;5.428;2023-05-31T01:53:18;102731.22;;;10.78;88.27
72116;BME280;59991;52.140;5.428;2023-05-31T01:53:49;102729.66;;;10.77;88.39
72116;BME280;59991;52.140;5.428;2023-05-31T01:54:21;102728.06;;;10.76;88.21
72116;BME280;59991;52.140;5.428;2023-05-31T01:54:53;102734.31;;;10.76;88.37
72116;BME280;59991;52.140;5.428;2023-05-31T01:55:24;102734.75;;;10.78;88.22
72116;BME280;59991;52.140;5.428;2023-05-31T01:55:57;102730.00;;;10.75;88.17
72116;BME280;59991;52.140;5.428;2023-05-31T01:56:30;102733.97;;;10.78;88.26
72116;BME280;59991;52.140;5.428;2023-05-31T01:57:03;102737.50;;;10.78;88.11
72116;BME280;59991;52.140;5.428;2023-05-31T01:57:38;102734.31;;;10.76;88.33
72116;BME280;59991;52.140;5.428;2023-05-31T01:58:11;102735.91;;;10.77;88.00
72116;BME280;59991;52.140;5.428;2023-05-31T01:58:45;102730.00;;;10.75;88.38
72116;BME280;59991;52.140;5.428;2023-05-31T01:59:20;102725.66;;;10.74;88.45
72116;BME280;59991;52.140;5.428;2023-05-31T01:59:52;102734.66;;;10.75;87.99
72116;BME280;59991;52.140;5.428;2023-05-31T02:00:24;102732.25;;;10.73;88.43
72116;BME280;59991;52.140;5.428;2023-05-31T02:00:58;102737.06;;;10.76;88.27
72116;BME280;59991;52.140;5.428;2023-05-31T02:01:30;102731.94;;;10.75;88.43
72116;BME280;59991;52.140;5.428;2023-05-31T02:02:03;102730.66;;;10.72;87.89
72116;BME280;59991;52.140;5.428;2023-05-31T02:02:35;102732.72;;;10.75;88.19
72116;BME280;59991;52.140;5.428;2023-05-31T02:03:06;102731.13;;;10.74;88.14
72116;BME280;59991;52.140;5.428;2023-05-31T02:03:38;102734.97;;;10.73;88.34
72116;BME280;59991;52.140;5.428;2023-05-31T02:04:10;102731.13;;;10.74;88.24
72116;BME280;59991;52.140;5.428;2023-05-31T02:04:41;102726.81;;;10.73;88.13
72116;BME280;59991;52.140;5.428;2023-05-31T02:05:13;102736.91;;;10.72;88.56
72116;BME280;59991;52.140;5.428;2023-05-31T02:05:57;102731.94;;;10.75;88.24
72116;BME280;59991;52.140;5.428;2023-05-31T02:06:29;102727.94;;;10.72;87.97
72116;BME280;59991;52.140;5.428;2023-05-31T02:07:01;102728.41;;;10.74;88.24
72116;BME280;59991;52.140;5.428;2023-05-31T02:07:33;102731.13;;;10.74;88.20
72116;BME280;59991;52.140;5.428;2023-05-31T02:08:06;102734.97;;;10.73;88.33
72116;BME280;59991;52.140;5.428;2023-05-31T02:08:38;102725.84;;;10.69;88.29
72116;BME280;59991;52.140;5.428;2023-05-31T02:09:09;102723.59;;;10.71;88.03
72116;BME280;59991;52.140;5.428;2023-05-31T02:09:41;102727.47;;;10.70;88.36
72116;BME280;59991;52.140;5.428;2023-05-31T02:10:12;102716.06;;;10.68;88.36
72116;BME280;59991;52.140;5.428;2023-05-31T02:10:44;102726.31;;;10.71;88.24
72116;BME280;59991;52.140;5.428;2023-05-31T02:11:16;102719.94;;;10.67;88.00
72116;BME280;59991;52.140;5.428;2023-05-31T02:11:47;102726.31;;;10.71;88.46
72116;BME280;59991;52.140;5.428;2023-05-31T02:12:19;102723.94;;;10.69;88.53
72116;BME280;59991;52.140;5.428;2023-05-31T02:12:50;102719.13;;;10.66;88.12
72116;BME280;59991;52.140;5.428;2023-05-31T02:13:26;102717.66;;;10.69;88.04
72116;BME280;59991;52.140;5.428;2023-05-31T02:13:58;102722.31;;;10.68;88.15
72116;BME280;59991;52.140;5.428;2023-05-31T02:14:30;102719.94;;;10.67;87.95
72116;BME280;59991;52.140;5.428;2023-05-31T02:15:01;102719.47;;;10.65;88.12
72116;BME280;59991;52.140;5.428;2023-05-31T02:15:33;102717.53;;;10.65;88.43
72116;BME280;59991;52.140;5.428;2023-05-31T02:16:05;102721.72;;;10.63;88.03
72116;BME280;59991;52.140;5.428;2023-05-31T02:16:37;102724.44;;;10.63;88.27
72116;BME280;59991;52.140;5.428;2023-05-31T02:17:08;102719.00;;;10.63;88.39
72116;BME280;59991;52.140;5.428;2023-05-31T02:17:41;102726.38;;;10.62;88.41
72116;BME280;59991;52.140;5.428;2023-05-31T02:18:14;102719.22;;;10.58;88.62
72116;BME280;59991;52.140;5.428;2023-05-31T02:18:48;102724.66;;;10.58;88.28
72116;BME280;59991;52.140;5.428;2023-05-31T02:19:19;102725.91;;;10.60;88.71
72116;BME280;59991;52.140;5.428;2023-05-31T02:19:52;102722.38;;;10.60;88.66
72116;BME280;59991;52.140;5.428;2023-05-31T02:20:23;102714.09;;;10.56;88.60
72116;BME280;59991;52.140;5.428;2023-05-31T02:20:55;102723.19;;;10.60;88.96
72116;BME280;59991;52.140;5.428;2023-05-31T02:21:27;102724.31;;;10.59;88.80
72116;BME280;59991;52.140;5.428;2023-05-31T02:21:58;102725.09;;;10.60;88.81
72116;BME280;59991;52.140;5.428;2023-05-31T02:22:30;102723.97;;;10.61;88.58
72116;BME280;59991;52.140;5.428;2023-05-31T02:23:01;102719.22;;;10.58;88.63
72116;BME280;59991;52.140;5.428;2023-05-31T02:23:33;102729.09;;;10.62;88.38
72116;BME280;59991;52.140;5.428;2023-05-31T02:24:05;102728.97;;;10.59;88.32
72116;BME280;59991;52.140;5.428;2023-05-31T02:24:37;102725.56;;;10.62;88.62
72116;BME280;59991;52.140;5.428;2023-05-31T02:25:09;102729.09;;;10.62;88.52
72116;BME280;59991;52.140;5.428;2023-05-31T02:25:44;102726.22;;;10.59;88.68
72116;BME280;59991;52.140;5.428;2023-05-31T02:26:17;102732.63;;;10.63;88.19
72116;BME280;59991;52.140;5.428;2023-05-31T02:26:48;102733.75;;;10.62;87.91
72116;BME280;59991;52.140;5.428;2023-05-31T02:27:20;102723.50;;;10.59;88.52
72116;BME280;59991;52.140;5.428;2023-05-31T02:27:52;102728.31;;;10.62;88.21
72116;BME280;59991;52.140;5.428;2023-05-31T02:28:23;102714.09;;;10.56;88.55
72116;BME280;59991;52.140;5.428;2023-05-31T02:28:55;102725.09;;;10.60;88.10
72116;BME280;59991;52.140;5.428;2023-05-31T02:29:26;102718.53;;;10.61;88.23
72116;BME280;59991;52.140;5.428;2023-05-31T02:29:57;102739.22;;;10.62;88.41
72116;BME280;59991;52.140;5.428;2023-05-31T02:30:30;102729.44;;;10.61;88.32
72116;BME280;59991;52.140;5.428;2023-05-31T02:31:02;102728.16;;;10.58;88.12
72116;BME280;59991;52.140;5.428;2023-05-31T02:31:34;102727.84;;;10.60;88.18
72116;BME280;59991;52.140;5.428;2023-05-31T02:32:06;102729.75;;;10.59;88.18
72116;BME280;59991;52.140;5.428;2023-05-31T02:32:37;102721.47;;;10.56;88.08
72116;BME280;59991;52.140;5.428;2023-05-31T02:33:09;102730.13;;;10.58;88.70
72116;BME280;59991;52.140;5.428;2023-05-31T02:33:41;102732.03;;;10.57;88.17
72116;BME280;59991;52.140;5.428;2023-05-31T02:34:16;102734.78;;;10.57;88.11
72116;BME280;59991;52.140;5.428;2023-05-31T02:34:49;102734.78;;;10.57;88.20
72116;BME280;59991;52.140;5.428;2023-05-31T02:35:21;102729.31;;;10.57;88.02
72116;BME280;59991;52.140;5.428;2023-05-31T02:35:52;102735.56;;;10.58;88.29
72116;BME280;59991;52.140;5.428;2023-05-31T02:36:24;102731.56;;;10.55;87.98
72116;BME280;59991;52.140;5.428;2023-05-31T02:37:00;102731.25;;;10.57;88.16
72116;BME280;59991;52.140;5.428;2023-05-31T02:37:32;102728.53;;;10.57;88.00
72116;BME280;59991;52.140;5.428;2023-05-31T02:38:04;102720.19;;;10.53;88.27
72116;BME280;59991;52.140;5.428;2023-05-31T02:38:35;102723.72;;;10.54;88.07
72116;BME280;59991;52.140;5.428;2023-05-31T02:39:07;102723.25;;;10.52;88.30
72116;BME280;59991;52.140;5.428;2023-05-31T02:39:38;102719.72;;;10.51;88.01
72116;BME280;59991;52.140;5.428;2023-05-31T02:40:10;102721.00;;;10.54;87.84
72116;BME280;59991;52.140;5.428;2023-05-31T02:40:41;102716.66;;;10.53;87.86
72116;BME280;59991;52.140;5.428;2023-05-31T02:41:13;102721.00;;;10.54;88.27
72116;BME280;59991;52.140;5.428;2023-05-31T02:41:45;102714.59;;;10.50;88.17
72116;BME280;59991;52.140;5.428;2023-05-31T02:42:17;102713.78;;;10.49;87.81
72116;BME280;59991;52.140;5.428;2023-05-31T02:42:48;102711.72;;;10.46;88.28
72116;BME280;59991;52.140;5.428;2023-05-31T02:43:20;102718.44;;;10.49;88.20
72116;BME280;59991;52.140;5.428;2023-05-31T02:43:51;102723.91;;;10.49;88.25
72116;BME280;59991;52.140;5.428;2023-05-31T02:44:23;102712.06;;;10.45;88.37
72116;BME280;59991;52.140;5.428;2023-05-31T02:44:54;102719.91;;;10.46;88.34
72116;BME280;59991;52.140;5.428;2023-05-31T02:45:26;102719.44;;;10.44;88.30
72116;BME280;59991;52.140;5.428;2023-05-31T02:45:57;102717.50;;;10.45;88.61
72116;BME280;59991;52.140;5.428;2023-05-31T02:46:32;102718.97;;;10.42;88.29
72116;BME280;59991;52.140;5.428;2023-05-31T02:47:04;102717.69;;;10.39;88.57
72116;BME280;59991;52.140;5.428;2023-05-31T02:47:37;102717.69;;;10.39;88.30
72116;BME280;59991;52.140;5.428;2023-05-31T02:48:09;102715.44;;;10.42;88.70
72116;BME280;59991;52.140;5.428;2023-05-31T02:48:41;102717.38;;;10.41;88.60
72116;BME280;59991;52.140;5.428;2023-05-31T02:49:12;102723.63;;;10.42;88.09
72116;BME280;59991;52.140;5.428;2023-05-31T02:49:44;102717.69;;;10.39;88.08
72116;BME280;59991;52.140;5.428;2023-05-31T02:50:15;102709.88;;;10.38;88.17
72116;BME280;59991;52.140;5.428;2023-05-31T02:50:47;102718.16;;;10.42;88.21
72116;BME280;59991;52.140;5.428;2023-05-31T02:51:18;102716.91;;;10.39;88.13
72116;BME280;59991;52.140;5.428;2023-05-31T02:51:50;102722.00;;;10.41;88.10
72116;BME280;59991;52.140;5.428;2023-05-31T02:52:21;102709.50;;;10.39;87.87
72116;BME280;59991;52.140;5.428;2023-05-31T02:52:55;102716.91;;;10.39;88.06
72116;BME280;59991;52.140;5.428;2023-05-31T02:53:26;102714.53;;;10.37;88.07
72116;BME280;59991;52.140;5.428;2023-05-31T02:53:59;102714.97;;;10.39;88.07
72116;BME280;59991;52.140;5.428;2023-05-31T02:54:31;102713.38;;;10.38;88.09
72116;BME280;59991;52.140;5.428;2023-05-31T02:55:03;102713.25;;;10.35;87.98
72116;BME280;59991;52.140;5.428;2023-05-31T02:55:35;102718.03;;;10.38;88.13
72116;BME280;59991;52.140;5.428;2023-05-31T02:56:08;102706.19;;;10.34;88.44
72116;BME280;59991;52.140;5.428;2023-05-31T02:56:40;102711.78;;;10.37;88.49
72116;BME280;59991;52.140;5.428;2023-05-31T02:57:11;102714.03;;;10.35;88.63
72116;BME280;59991;52.140;5.428;2023-05-31T02:57:43;102709.38;;;10.36;88.35